sensor_id;sensor_type;location;lat;lon;timestamp;pressure;altitude;pressure_sealevel;temperature;humidity
67052;BME280;53957;47.222;18.670;2023-05-03T06:35:37;100602.47;;;14.21;100.00
67052;BME280;53957;47.222;18.670;2023-05-03T06:38:50;100614.81;;;14.36;100.00
67052;BME280;53957;47.222;18.670;2023-05-03T06:42:01;100615.38;;;14.47;100.00
67052;BME280;53957;47.222;18.670;2023-05-03T06:45:07;100623.25;;;14.71;100.00
67052;BME280;53957;47.222;18.670;2023-05-03T06:48:21;100627.03;;;14.70;100.00
67052;BME280;53957;47.222;18.670;2023-05-03T06:51:27;100623.03;;;14.81;100.00
67052;BME280;53957;47.222;18.670;2023-05-03T06:54:32;100618.31;;;15.01;100.00
67052;BME280;53957;47.222;18.670;2023-05-03T06:58:15;100623.75;;;15.10;100.00
67052;BME280;53957;47.222;18.670;2023-05-03T07:01:22;100620.56;;;15.67;100.00
67052;BME280;53957;47.222;18.670;2023-05-03T07:04:31;100621.53;;;15.94;100.00
67052;BME280;53957;47.222;18.670;2023-05-03T07:07:54;100613.91;;;16.19;100.00
67052;BME280;53957;47.222;18.670;2023-05-03T07:11:01;100614.66;;;16.10;100.00
67052;BME280;53957;47.222;18.670;2023-05-03T07:14:08;100613.09;;;16.18;100.00
67052;BME280;53957;47.222;18.670;2023-05-03T07:17:14;100621.28;;;16.45;100.00
67052;BME280;53957;47.222;18.670;2023-05-03T07:20:19;100617.81;;;16.70;100.00
67052;BME280;53957;47.222;18.670;2023-05-03T07:23:22;100622.53;;;16.38;100.00
67052;BME280;53957;47.222;18.670;2023-05-03T07:26:46;100633.94;;;16.53;100.00
67052;BME280;53957;47.222;18.670;2023-05-03T07:29:59;100626.50;;;16.09;100.00
67052;BME280;53957;47.222;18.670;2023-05-03T07:33:26;100626.87;;;16.66;100.00
67052;BME280;53957;47.222;18.670;2023-05-03T07:36:38;100624.97;;;16.66;100.00
67052;BME280;53957;47.222;18.670;2023-05-03T07:39:41;100628.38;;;17.51;100.00
67052;BME280;53957;47.222;18.670;2023-05-03T07:42:47;100622.28;;;17.89;100.00
67052;BME280;53957;47.222;18.670;2023-05-03T07:45:51;100623.72;;;17.95;100.00
67052;BME280;53957;47.222;18.670;2023-05-03T07:49:14;100621.28;;;18.41;100.00
67052;BME280;53957;47.222;18.670;2023-05-03T07:52:47;100633.87;;;18.28;100.00
67052;BME280;53957;47.222;18.670;2023-05-03T07:55:54;100625.12;;;18.91;100.00
67052;BME280;53957;47.222;18.670;2023-05-03T07:59:18;100634.91;;;19.59;100.00
67052;BME280;53957;47.222;18.670;2023-05-03T08:03:01;100630.88;;;19.11;100.00
67052;BME280;53957;47.222;18.670;2023-05-03T08:06:34;100632.69;;;19.40;100.00
67052;BME280;53957;47.222;18.670;2023-05-03T08:10:01;100625.19;;;19.46;100.00
67052;BME280;53957;47.222;18.670;2023-05-03T08:13:14;100633.34;;;19.58;100.00
67052;BME280;53957;47.222;18.670;2023-05-03T08:16:38;100630.31;;;19.72;100.00
67052;BME280;53957;47.222;18.670;2023-05-03T08:20:21;100637.97;;;19.37;100.00
67052;BME280;53957;47.222;18.670;2023-05-03T08:24:05;100631.00;;;19.14;100.00
67052;BME280;53957;47.222;18.670;2023-05-03T08:27:11;100633.87;;;19.98;100.00
67052;BME280;53957;47.222;18.670;2023-05-03T08:30:15;100638.06;;;19.95;100.00
67052;BME280;53957;47.222;18.670;2023-05-03T08:33:21;100626.47;;;20.32;100.00
67052;BME280;53957;47.222;18.670;2023-05-03T13:47:37;100573.09;;;18.22;100.00
67052;BME280;53957;47.222;18.670;2023-05-03T13:51:12;100570.53;;;18.26;100.00
67052;BME280;53957;47.222;18.670;2023-05-03T13:54:36;100573.38;;;17.91;100.00
67052;BME280;53957;47.222;18.670;2023-05-03T13:57:42;100571.22;;;17.66;100.00
67052;BME280;53957;47.222;18.670;2023-05-03T14:01:07;100569.37;;;18.06;100.00
67052;BME280;53957;47.222;18.670;2023-05-03T14:04:11;100574.50;;;17.81;100.00
67052;BME280;53957;47.222;18.670;2023-05-03T14:07:36;100563.13;;;18.14;100.00
67052;BME280;53957;47.222;18.670;2023-05-03T14:10:59;100560.66;;;17.44;100.00
67052;BME280;53957;47.222;18.670;2023-05-03T14:14:07;100566.47;;;17.63;100.00
67052;BME280;53957;47.222;18.670;2023-05-03T14:17:31;100565.09;;;17.22;100.00
67052;BME280;53957;47.222;18.670;2023-05-03T14:20:35;100556.06;;;17.35;100.00
67052;BME280;53957;47.222;18.670;2023-05-03T14:24:00;100555.13;;;17.31;100.00
67052;BME280;53957;47.222;18.670;2023-05-03T14:27:42;100560.22;;;17.06;100.00
67052;BME280;53957;47.222;18.670;2023-05-03T14:31:06;100553.22;;;17.23;100.00
67052;BME280;53957;47.222;18.670;2023-05-03T14:34:17;100556.41;;;17.08;100.00
67052;BME280;53957;47.222;18.670;2023-05-03T14:37:25;100546.72;;;17.24;100.00
67052;BME280;53957;47.222;18.670;2023-05-03T14:40:48;100560.22;;;17.06;100.00
67052;BME280;53957;47.222;18.670;2023-05-03T14:44:13;100550.69;;;17.18;100.00
67052;BME280;53957;47.222;18.670;2023-05-03T14:47:51;100549.09;;;17.17;100.00
67052;BME280;53957;47.222;18.670;2023-05-03T14:51:34;100554.03;;;17.06;100.00
67052;BME280;53957;47.222;18.670;2023-05-03T14:54:58;100562.91;;;17.06;100.00
67052;BME280;53957;47.222;18.670;2023-05-03T14:58:25;100554.34;;;16.96;100.00
67052;BME280;53957;47.222;18.670;2023-05-03T15:01:30;100557.97;;;16.91;100.00
67052;BME280;53957;47.222;18.670;2023-05-03T15:04:36;100551.81;;;17.08;100.00
67052;BME280;53957;47.222;18.670;2023-05-03T15:07:41;100559.56;;;17.10;100.00
67052;BME280;53957;47.222;18.670;2023-05-03T15:11:11;100560.53;;;17.14;100.00
67052;BME280;53957;47.222;18.670;2023-05-03T15:14:35;100558.44;;;17.28;100.00
67052;BME280;53957;47.222;18.670;2023-05-03T15:17:39;100550.22;;;16.98;100.00
67052;BME280;53957;47.222;18.670;2023-05-03T15:21:02;100560.69;;;17.09;100.00
67052;BME280;53957;47.222;18.670;2023-05-03T15:24:42;100557.19;;;17.08;100.00
67052;BME280;53957;47.222;18.670;2023-05-03T15:28:05;100562.56;;;16.90;100.00
67052;BME280;53957;47.222;18.670;2023-05-03T15:31:35;100568.41;;;16.84;100.00
67052;BME280;53957;47.222;18.670;2023-05-03T15:34:59;100551.00;;;16.90;100.00
67052;BME280;53957;47.222;18.670;2023-05-03T15:38:03;100561.44;;;16.83;100.00
67052;BME280;53957;47.222;18.670;2023-05-03T15:41:47;100561.59;;;16.60;100.00
67052;BME280;53957;47.222;18.670;2023-05-03T15:45:31;100565.72;;;16.66;100.00
67052;BME280;53957;47.222;18.670;2023-05-03T15:49:14;100572.50;;;16.46;100.00
67052;BME280;53957;47.222;18.670;2023-05-03T15:52:26;100571.38;;;16.38;100.00
67052;BME280;53957;47.222;18.670;2023-05-03T15:55:52;100563.00;;;16.49;100.00
67052;BME280;53957;47.222;18.670;2023-05-03T15:59:39;100571.56;;;16.60;100.00
67052;BME280;53957;47.222;18.670;2023-05-03T16:03:23;100568.03;;;16.41;100.00
67052;BME280;53957;47.222;18.670;2023-05-03T16:07:07;100574.53;;;16.49;100.00
67052;BME280;53957;47.222;18.670;2023-05-03T16:10:49;100566.59;;;16.26;100.00
67052;BME280;53957;47.222;18.670;2023-05-03T16:14:15;100576.41;;;16.31;100.00
67052;BME280;53957;47.222;18.670;2023-05-03T16:17:57;100576.22;;;16.19;100.00
67052;BME280;53957;47.222;18.670;2023-05-03T16:21:41;100569.63;;;15.93;100.00
67052;BME280;53957;47.222;18.670;2023-05-03T16:25:25;100581.31;;;15.66;100.00
67052;BME280;53957;47.222;18.670;2023-05-03T16:28:53;100567.28;;;15.46;100.00
67052;BME280;53957;47.222;18.670;2023-05-03T16:32:36;100572.06;;;15.50;100.00
67052;BME280;53957;47.222;18.670;2023-05-03T16:36:20;100577.31;;;15.32;100.00
67052;BME280;53957;47.222;18.670;2023-05-03T16:39:24;100589.72;;;15.19;100.00
67052;BME280;53957;47.222;18.670;2023-05-03T16:42:48;100580.00;;;15.09;100.00
67052;BME280;53957;47.222;18.670;2023-05-03T16:46:13;100584.06;;;14.84;100.00
67052;BME280;53957;47.222;18.670;2023-05-03T16:49:39;100587.53;;;14.85;100.00
67052;BME280;53957;47.222;18.670;2023-05-03T16:53:05;100590.78;;;14.95;100.00
67052;BME280;53957;47.222;18.670;2023-05-03T16:56:30;100595.69;;;14.79;100.00
67052;BME280;53957;47.222;18.670;2023-05-03T16:59:43;100590.53;;;14.55;100.00
67052;BME280;53957;47.222;18.670;2023-05-03T17:03:08;100581.50;;;14.65;100.00
67052;BME280;53957;47.222;18.670;2023-05-03T17:06:31;100590.13;;;14.48;100.00
67052;BME280;53957;47.222;18.670;2023-05-03T17:09:56;100590.25;;;14.43;100.00
67052;BME280;53957;47.222;18.670;2023-05-03T17:13:19;100586.78;;;14.42;100.00
67052;BME280;53957;47.222;18.670;2023-05-03T17:16:52;100594.09;;;14.50;100.00
67052;BME280;53957;47.222;18.670;2023-05-03T17:20:35;100592.53;;;14.22;100.00
67052;BME280;53957;47.222;18.670;2023-05-03T17:24:20;100595.41;;;14.39;100.00
67052;BME280;53957;47.222;18.670;2023-05-03T17:28:03;100612.28;;;14.26;100.00
67052;BME280;53957;47.222;18.670;2023-05-03T17:31:15;100609.72;;;14.21;100.00
67052;BME280;53957;47.222;18.670;2023-05-03T17:34:42;100615.84;;;14.07;100.00
67052;BME280;53957;47.222;18.670;2023-05-03T17:38:05;100608.50;;;13.99;100.00
67052;BME280;53957;47.222;18.670;2023-05-03T20:50:45;100777.25;;;13.33;100.00
67052;BME280;53957;47.222;18.670;2023-05-03T20:54:31;100780.53;;;13.30;100.00
67052;BME280;53957;47.222;18.670;2023-05-03T20:57:54;100781.66;;;13.24;100.00
67052;BME280;53957;47.222;18.670;2023-05-03T21:01:58;100786.78;;;13.20;100.00
67052;BME280;53957;47.222;18.670;2023-05-03T21:05:43;100782.28;;;13.15;100.00
67052;BME280;53957;47.222;18.670;2023-05-03T21:09:19;100781.38;;;13.01;100.00
67052;BME280;53957;47.222;18.670;2023-05-03T21:13:00;100765.87;;;12.98;100.00
67052;BME280;53957;47.222;18.670;2023-05-03T21:17:03;100767.66;;;12.83;100.00
67052;BME280;53957;47.222;18.670;2023-05-03T21:20:47;100771.88;;;12.89;100.00
67052;BME280;53957;47.222;18.670;2023-05-03T21:24:51;100765.97;;;12.87;100.00
67052;BME280;53957;47.222;18.670;2023-05-03T21:28:37;100764.38;;;12.86;100.00
67052;BME280;53957;47.222;18.670;2023-05-03T21:32:40;100775.09;;;12.86;100.00
67052;BME280;53957;47.222;18.670;2023-05-03T21:36:22;100759.84;;;12.87;100.00
67052;BME280;53957;47.222;18.670;2023-05-03T21:40:25;100765.56;;;12.75;100.00
67052;BME280;53957;47.222;18.670;2023-05-03T21:44:08;100757.94;;;12.87;100.00
67052;BME280;53957;47.222;18.670;2023-05-03T21:48:13;100758.13;;;12.72;100.00
67052;BME280;53957;47.222;18.670;2023-05-03T21:51:56;100762.28;;;12.83;100.00
67052;BME280;53957;47.222;18.670;2023-05-03T21:56:00;100751.63;;;12.78;100.00
67052;BME280;53957;47.222;18.670;2023-05-03T21:59:42;100753.19;;;12.84;100.00
67052;BME280;53957;47.222;18.670;2023-05-03T22:03:20;100746.00;;;12.80;100.00
67052;BME280;53957;47.222;18.670;2023-05-03T22:07:04;100748.31;;;12.86;100.00
67052;BME280;53957;47.222;18.670;2023-05-03T22:10:28;100742.78;;;12.78;100.00
67052;BME280;53957;47.222;18.670;2023-05-03T22:13:49;100745.28;;;12.69;100.00
67052;BME280;53957;47.222;18.670;2023-05-03T22:17:29;100733.97;;;12.77;100.00
67052;BME280;53957;47.222;18.670;2023-05-03T22:21:14;100735.87;;;12.77;100.00
67052;BME280;53957;47.222;18.670;2023-05-03T22:25:21;100738.75;;;12.80;100.00
67052;BME280;53957;47.222;18.670;2023-05-03T22:29:04;100741.66;;;12.60;100.00
67052;BME280;53957;47.222;18.670;2023-05-03T22:33:07;100734.25;;;12.51;100.00
67052;BME280;53957;47.222;18.670;2023-05-03T22:36:50;100726.22;;;12.51;100.00
67052;BME280;53957;47.222;18.670;2023-05-03T22:40:34;100721.53;;;12.38;100.00
67052;BME280;53957;47.222;18.670;2023-05-03T22:43:59;100716.03;;;12.53;100.00
67052;BME280;53957;47.222;18.670;2023-05-03T22:47:35;100711.69;;;12.57;100.00
67052;BME280;53957;47.222;18.670;2023-05-03T22:51:39;100717.63;;;12.54;100.00
67052;BME280;53957;47.222;18.670;2023-05-03T22:55:24;100709.94;;;12.48;100.00
67052;BME280;53957;47.222;18.670;2023-05-03T22:59:22;100708.78;;;12.54;100.00
67052;BME280;53957;47.222;18.670;2023-05-03T23:03:04;100710.75;;;12.48;100.00
67052;BME280;53957;47.222;18.670;2023-05-03T23:06:25;100706.69;;;12.51;100.00
67052;BME280;53957;47.222;18.670;2023-05-03T23:10:09;100704.56;;;12.48;100.00
67052;BME280;53957;47.222;18.670;2023-05-03T23:14:12;100701.16;;;12.42;100.00
67052;BME280;53957;47.222;18.670;2023-05-03T23:17:55;100698.75;;;12.40;100.00
67052;BME280;53957;47.222;18.670;2023-05-03T23:21:38;100697.69;;;12.42;100.00
67052;BME280;53957;47.222;18.670;2023-05-03T23:25:17;100689.28;;;12.53;100.00
67052;BME280;53957;47.222;18.670;2023-05-03T23:29:12;100689.41;;;12.38;100.00
67052;BME280;53957;47.222;18.670;2023-05-03T23:32:55;100683.59;;;12.31;100.00
67052;BME280;53957;47.222;18.670;2023-05-03T23:36:59;100684.19;;;12.28;100.00
67052;BME280;53957;47.222;18.670;2023-05-03T23:40:42;100688.09;;;12.35;100.00
67052;BME280;53957;47.222;18.670;2023-05-03T23:44:26;100678.84;;;12.28;100.00
67052;BME280;53957;47.222;18.670;2023-05-03T23:48:08;100675.25;;;12.37;100.00
67052;BME280;53957;47.222;18.670;2023-05-03T23:52:12;100671.03;;;12.31;100.00
67052;BME280;53957;47.222;18.670;2023-05-03T23:55:58;100676.81;;;12.14;100.00
